Řízení letového provozu České republiky  
Aktualizace dat:  24.03.2019 21:21:06 UTC English version
   METEO Zobrazení stránky:  24.03.2019 21:21:02 UTC  
vysvětlivky
METAR EDDB 242050Z 27006KT CAVOK 04/M01 Q1019 NOSIG=
METAR EDDC 242050Z 28005KT 240V300 9999 FEW036 BKN048 06/04 Q1020 NOSIG=
METAR EDDE 242050Z 29005KT 9999 SCT035 04/02 Q1021 NOSIG=
METAR EDDF 242050Z 27008KT CAVOK 08/M01 Q1023 NOSIG=
METAR EDDM 242050Z 30007KT 8000 NSC 11/06 Q1021 NOSIG=
METAR EDDN 242050Z 30004KT 9999 SCT028 09/05 Q1021 NOSIG=
METAR EDDP 242050Z 30006KT 9999 FEW033 BKN046 06/M01 Q1021 NOSIG=
METAR EDDT 242050Z 28002KT CAVOK 03/M01 Q1019 NOSIG=
METAR EDQM NIL
METAR EPBY 242100Z 26002KT CAVOK 04/M01 Q1017=
METAR EPGD 242100Z 26007KT CAVOK 02/M01 Q1016=
METAR EPKK 242100Z 33003KT 300V040 9999 BKN053 09/00 Q1017=
METAR EPKT 242100Z VRB01KT 9999 BKN044 06/02 Q1017=
METAR EPLL 242100Z VRB01KT CAVOK 05/M01 Q1017=
METAR EPPO 242100Z 34003KT CAVOK 06/M02 Q1018=
METAR EPRZ 242100Z VRB01KT CAVOK 05/M00 Q1016=
METAR EPWA 242100Z 30002KT CAVOK 06/M02 Q1017 NOSIG=
METAR EPWR 242100Z 27005KT CAVOK 08/03 Q1018=
METAR LHBP 242100Z VRB03KT CAVOK 08/07 Q1015 NOSIG=
METAR LHSM NIL
SPECI LKBC 242103Z AUTO 00000KT 2700 BR SCT044 BKN050 05/04 Q1018=
METAR LKCV 242100Z 28004KT 9999 BKN032 OVC060 08/05 Q1019 NOSIG RMK BLU BLU=
METAR LKKB 242100Z 30004KT 9999 OVC032 08/03 Q1019 NOSIG RMK BLU BLU=
METAR LKKU NIL
METAR LKKV 242100Z 28003KT 8000 OVC017 05/04 Q1019 RMK REG QNH 1015=
METAR LKLN 242100Z AUTO 34002KT 9000 OVC025 08/05 Q1020=
METAR LKMT 242100Z 05004KT 9999 OVC041 08/03 Q1018 NOSIG RMK REG QNH 1015=
METAR LKNA 242100Z 33006KT CAVOK 06/04 Q1018 RMK BLU=
METAR LKPD 242100Z 28003KT 9999 BKN040 BKN060 09/05 Q1019 RMK BLACK=
METAR LKPJ 242100Z AUTO 34004KT 270V010 9999 FEW022/// SCT028/// BKN039/// 09/04 Q1018=
METAR LKPR 242100Z 31004KT 270V350 9999 OVC029 07/03 Q1019 NOSIG RMK REG QNH 1015=
METAR LKTB 242100Z 33008KT CAVOK 09/05 Q1018 NOSIG RMK REG QNH 1015=
METAR LKVO NIL
METAR LOWI 242050Z VRB01KT CAVOK 08/01 Q1020 NOSIG=
METAR LOWL 242050Z AUTO 17003KT 130V200 8000 FEW050 BKN090 10/06 Q1019 NOSIG=
METAR LOWS 242050Z 30003KT 250V340 9999 BKN050 11/04 Q1020 NOSIG=
METAR LOWW 242050Z 33011KT CAVOK 12/06 Q1018 NOSIG=
METAR LZIB 242100Z 29010KT CAVOK 13/05 Q1017=
METAR LZKZ 242100Z 04007KT CAVOK 10/04 Q1015=
METAR LZMC 242100Z 34006KT 9999 SCT036 BKN046 BKN090 11/03 Q1018=
METAR LZPP 242100Z AUTO 35006KT 9999 OVC055/// 10/04 Q1017=
METAR LZSL 242100Z 02002KT 9999 FEW055 SCT070 08/05 Q1015=
METAR LZTT 242100Z 28004KT 7000 FEW022 BKN030 03/01 Q1016=
METAR LZZI 242100Z 04004KT 9999 -RA SCT046 OVC054 09/04 Q1017=